createdAt,value
2022-09-22T00:01:53.450Z,5.40
2022-09-22T00:04:20.958Z,5.31
2022-09-22T00:06:51.335Z,5.25
2022-09-22T00:09:21.419Z,5.29
2022-09-22T00:11:50.712Z,5.28
2022-09-22T00:14:21.058Z,5.48
2022-09-22T00:16:50.298Z,5.66
2022-09-22T00:19:22.771Z,5.69
2022-09-22T00:21:52.134Z,5.53
2022-09-22T00:24:22.511Z,5.36
2022-09-22T00:26:51.039Z,5.28
2022-09-22T00:29:18.875Z,5.32
2022-09-22T00:31:46.588Z,5.28
2022-09-22T00:34:16.496Z,5.27
2022-09-22T00:36:44.015Z,5.32
2022-09-22T00:39:13.833Z,5.38
2022-09-22T00:41:44.752Z,5.44
2022-09-22T00:44:38.790Z,5.44
2022-09-22T00:47:13.450Z,5.47
2022-09-22T00:49:46.549Z,5.41
2022-09-22T00:52:17.218Z,5.24
2022-09-22T00:54:46.252Z,5.07
2022-09-22T00:57:17.155Z,4.97
2022-09-22T00:59:45.126Z,5.23
2022-09-22T01:02:12.810Z,5.30
2022-09-22T01:04:41.272Z,5.45
2022-09-22T01:07:09.415Z,5.54
2022-09-22T01:09:36.982Z,5.46
2022-09-22T01:12:06.476Z,5.25
2022-09-22T01:14:49.674Z,5.22
2022-09-22T01:17:24.295Z,5.23
2022-09-22T01:20:17.336Z,5.26
2022-09-22T01:23:05.541Z,5.08
2022-09-22T01:25:50.402Z,4.98
2022-09-22T01:28:31.396Z,4.96
2022-09-22T01:31:04.668Z,5.13
2022-09-22T01:33:35.147Z,4.99
2022-09-22T01:36:11.963Z,5.05
2022-09-22T01:38:49.229Z,5.07
2022-09-22T01:41:21.102Z,5.18
2022-09-22T01:43:52.283Z,5.01
2022-09-22T01:46:25.049Z,4.94
2022-09-22T01:48:53.649Z,4.93
2022-09-22T01:51:25.510Z,4.90
2022-09-22T01:53:55.483Z,4.75
2022-09-22T01:56:24.255Z,4.95
2022-09-22T01:58:55.419Z,5.04
2022-09-22T02:01:27.089Z,5.01
2022-09-22T02:03:58.568Z,5.00
2022-09-22T02:06:29.324Z,4.88
2022-09-22T02:08:59.783Z,4.99
2022-09-22T02:11:27.502Z,5.05
2022-09-22T02:13:55.215Z,5.09
2022-09-22T02:16:26.083Z,4.96
2022-09-22T02:18:55.374Z,4.81
2022-09-22T02:21:25.866Z,4.78
2022-09-22T02:23:53.379Z,4.69
2022-09-22T02:26:23.821Z,4.60
2022-09-22T02:28:53.943Z,4.48
2022-09-22T02:31:22.616Z,4.43
2022-09-22T02:33:52.974Z,4.34
2022-09-22T02:36:35.686Z,4.32
2022-09-22T02:39:07.776Z,4.28
2022-09-22T02:41:41.743Z,4.58
2022-09-22T02:44:14.662Z,4.88
2022-09-22T02:46:44.722Z,4.80
2022-09-22T02:49:17.200Z,4.72
2022-09-22T02:51:46.516Z,4.62
2022-09-22T02:54:14.906Z,4.72
2022-09-22T02:56:42.426Z,4.63
2022-09-22T02:59:10.328Z,4.60
2022-09-22T03:01:38.437Z,4.68
2022-09-22T03:04:06.520Z,4.63
2022-09-22T03:06:36.657Z,4.47
2022-09-22T03:09:04.490Z,4.42
2022-09-22T03:11:32.033Z,4.47
2022-09-22T03:13:59.623Z,4.51
2022-09-22T03:16:27.143Z,4.33
2022-09-22T03:18:54.735Z,4.27
2022-09-22T03:21:22.298Z,4.29
2022-09-22T03:23:51.131Z,4.22
2022-09-22T03:26:18.680Z,4.21
2022-09-22T03:28:46.181Z,4.21
2022-09-22T03:31:13.778Z,4.16
2022-09-22T03:33:41.647Z,4.15
2022-09-22T03:36:09.338Z,4.13
2022-09-22T03:38:37.003Z,4.26
2022-09-22T03:41:06.179Z,4.21
2022-09-22T03:43:33.699Z,4.31
2022-09-22T03:46:02.019Z,4.41
2022-09-22T03:48:31.019Z,4.65
2022-09-22T03:50:58.700Z,4.86
2022-09-22T03:53:26.267Z,4.66
2022-09-22T03:55:53.802Z,4.59
2022-09-22T03:58:22.712Z,4.57
2022-09-22T04:00:50.391Z,4.31
2022-09-22T04:03:18.440Z,4.50
2022-09-22T04:05:50.631Z,4.92
2022-09-22T04:08:18.245Z,4.65
2022-09-22T04:10:46.695Z,4.70
2022-09-22T04:13:14.769Z,4.49
2022-09-22T04:15:43.822Z,4.89
2022-09-22T04:18:12.784Z,4.66
2022-09-22T04:20:43.370Z,4.53
2022-09-22T04:23:11.279Z,4.47
2022-09-22T04:25:39.120Z,4.63
2022-09-22T04:28:07.335Z,4.43
2022-09-22T04:30:35.556Z,4.18
2022-09-22T04:33:04.870Z,4.09
2022-09-22T04:35:32.399Z,4.06
2022-09-22T04:38:00.566Z,4.46
2022-09-22T04:40:28.437Z,4.51
2022-09-22T04:42:55.992Z,4.70
2022-09-22T04:45:23.554Z,4.61
2022-09-22T04:47:52.026Z,4.89
2022-09-22T04:50:22.570Z,4.99
2022-09-22T04:52:51.255Z,5.12
2022-09-22T04:55:19.315Z,5.26
2022-09-22T04:57:49.298Z,5.20
2022-09-22T05:00:17.715Z,5.03
2022-09-22T05:05:29.880Z,4.84
2022-09-22T05:07:57.410Z,4.63
2022-09-22T05:10:25.679Z,5.10
2022-09-22T05:12:54.372Z,4.96
2022-09-22T05:15:22.666Z,4.65
2022-09-22T05:17:51.237Z,4.39
2022-09-22T05:20:19.275Z,4.64
2022-09-22T05:22:48.565Z,5.06
2022-09-22T05:25:17.750Z,4.82
2022-09-22T05:27:45.758Z,4.70
2022-09-22T05:30:13.999Z,5.01
2022-09-22T05:32:43.799Z,5.10
2022-09-22T05:35:11.652Z,4.80
2022-09-22T05:37:39.245Z,4.75
2022-09-22T05:40:09.226Z,4.84
2022-09-22T05:42:40.690Z,4.78
2022-09-22T05:45:09.567Z,4.66
2022-09-22T05:47:37.095Z,4.69
2022-09-22T05:50:05.386Z,4.64
2022-09-22T05:52:32.924Z,4.55
2022-09-22T05:55:00.432Z,4.54
2022-09-22T05:57:31.704Z,4.56
2022-09-22T05:59:59.645Z,4.59
2022-09-22T06:02:27.384Z,4.62
2022-09-22T06:04:55.388Z,4.67
2022-09-22T06:07:24.068Z,4.75
2022-09-22T06:09:52.036Z,4.88
2022-09-22T06:12:19.996Z,5.06
2022-09-22T06:14:48.923Z,5.33
2022-09-22T06:17:16.690Z,5.56
2022-09-22T06:19:50.083Z,5.72
2022-09-22T06:22:18.550Z,5.85
2022-09-22T06:24:46.264Z,5.95
2022-09-22T06:27:14.042Z,6.12
2022-09-22T06:29:42.367Z,6.20
2022-09-22T06:32:11.506Z,6.39
2022-09-22T06:34:39.321Z,6.53
2022-09-22T06:37:09.604Z,6.67
2022-09-22T06:39:37.646Z,6.79
2022-09-22T06:42:05.852Z,6.95
2022-09-22T06:44:33.576Z,7.14
2022-09-22T06:47:05.218Z,7.23
2022-09-22T06:49:34.163Z,7.41
2022-09-22T06:52:03.762Z,7.56
2022-09-22T06:54:32.454Z,7.74
2022-09-22T06:57:00.029Z,7.89
2022-09-22T06:59:28.937Z,8.01
2022-09-22T07:01:56.663Z,8.15
2022-09-22T07:04:24.264Z,8.20
2022-09-22T07:06:53.152Z,8.37
2022-09-22T07:09:21.156Z,8.49
2022-09-22T07:11:49.387Z,8.65
2022-09-22T07:14:20.987Z,8.79
2022-09-22T07:16:48.625Z,8.93
2022-09-22T07:19:16.391Z,9.06
2022-09-22T07:21:45.356Z,9.17
2022-09-22T07:24:14.876Z,9.32
2022-09-22T07:26:44.021Z,9.52
2022-09-22T07:29:13.331Z,9.69
2022-09-22T07:31:41.756Z,9.90
2022-09-22T07:34:09.494Z,10.02
2022-09-22T07:36:37.889Z,10.24
2022-09-22T07:39:08.031Z,10.35
2022-09-22T07:41:41.752Z,10.50
2022-09-22T07:44:27.875Z,10.63
2022-09-22T07:46:55.730Z,10.77
2022-09-22T07:49:23.404Z,10.90
2022-09-22T07:51:54.664Z,11.07
2022-09-22T07:54:22.608Z,11.20
2022-09-22T07:56:56.003Z,11.29
2022-09-22T07:59:23.528Z,11.34
2022-09-22T08:01:52.263Z,11.36
2022-09-22T08:04:22.815Z,11.35
2022-09-22T08:06:55.345Z,11.47
2022-09-22T08:09:23.728Z,11.69
2022-09-22T08:11:53.131Z,11.77
2022-09-22T08:14:23.422Z,11.81
2022-09-22T08:16:51.851Z,11.98
2022-09-22T08:19:21.059Z,12.04
2022-09-22T08:21:50.985Z,12.11
2022-09-22T08:24:21.595Z,12.33
2022-09-22T08:26:50.315Z,12.41
2022-09-22T08:29:19.289Z,12.45
2022-09-22T08:31:49.255Z,12.34
2022-09-22T08:34:18.215Z,12.38
2022-09-22T08:36:48.437Z,12.57
2022-09-22T08:39:17.173Z,12.43
2022-09-22T08:41:56.680Z,12.42
2022-09-22T08:44:28.136Z,12.65
2022-09-22T08:46:57.545Z,12.89
2022-09-22T08:49:45.379Z,13.02
2022-09-22T08:52:17.819Z,13.10
2022-09-22T08:54:46.108Z,13.18
2022-09-22T08:57:39.080Z,13.38
2022-09-22T09:00:13.108Z,13.41
2022-09-22T09:02:42.416Z,13.46
2022-09-22T09:05:51.307Z,13.70
2022-09-22T09:09:04.010Z,13.75
2022-09-22T09:11:45.364Z,13.84
2022-09-22T09:14:24.871Z,13.80
2022-09-22T09:16:57.839Z,13.89
2022-09-22T09:19:30.537Z,14.00
2022-09-22T09:22:03.469Z,14.08
2022-09-22T09:27:24.390Z,14.00
2022-09-22T09:29:58.949Z,13.92
2022-09-22T09:32:34.457Z,14.07
2022-09-22T09:35:02.848Z,14.18
2022-09-22T09:37:31.307Z,14.36
2022-09-22T09:40:02.923Z,14.49
2022-09-22T09:42:34.784Z,14.37
2022-09-22T09:45:03.462Z,14.48
2022-09-22T09:47:47.919Z,14.65
2022-09-22T09:50:16.426Z,14.74
2022-09-22T09:52:44.006Z,14.71
2022-09-22T09:55:26.584Z,14.91
2022-09-22T09:58:09.040Z,14.82
2022-09-22T10:00:53.716Z,14.88
2022-09-22T10:03:28.039Z,14.92
2022-09-22T10:06:02.786Z,15.05
2022-09-22T10:08:36.384Z,15.26
2022-09-22T10:11:04.488Z,15.14
2022-09-22T10:13:34.493Z,15.25
2022-09-22T10:16:05.640Z,15.27
2022-09-22T10:18:40.513Z,15.42
2022-09-22T10:21:15.327Z,15.58
2022-09-22T10:23:44.779Z,15.36
2022-09-22T10:26:18.317Z,15.19
2022-09-22T10:28:50.714Z,15.27
2022-09-22T10:31:22.178Z,15.45
2022-09-22T10:33:58.585Z,15.53
2022-09-22T10:36:27.000Z,15.39
2022-09-22T10:38:58.917Z,15.51
2022-09-22T10:41:34.000Z,15.49
2022-09-22T10:44:27.339Z,15.54
2022-09-22T10:47:21.554Z,15.55
2022-09-22T10:50:07.025Z,15.77
2022-09-22T10:52:41.296Z,15.82
2022-09-22T10:55:20.612Z,16.18
2022-09-22T10:58:02.031Z,16.37
2022-09-22T11:00:29.928Z,16.14
2022-09-22T11:03:20.146Z,15.70
2022-09-22T11:06:17.910Z,15.53
2022-09-22T11:09:06.701Z,16.33
2022-09-22T11:11:55.923Z,16.23
2022-09-22T11:14:35.114Z,15.99
2022-09-22T11:17:17.018Z,16.63
2022-09-22T11:20:05.248Z,16.91
2022-09-22T11:22:54.319Z,17.32
2022-09-22T11:25:32.162Z,16.85
2022-09-22T11:28:10.783Z,16.91
2022-09-22T11:30:41.796Z,17.12
2022-09-22T11:33:40.053Z,17.59
2022-09-22T11:36:19.587Z,17.57
2022-09-22T11:39:12.468Z,18.08
2022-09-22T11:41:42.260Z,18.19
2022-09-22T11:44:37.732Z,18.15
2022-09-22T11:47:19.251Z,18.35
2022-09-22T11:50:05.885Z,17.72
2022-09-22T11:52:44.307Z,17.14
2022-09-22T11:55:23.443Z,17.15
2022-09-22T11:57:54.280Z,18.18
2022-09-22T12:00:22.463Z,17.37
2022-09-22T12:03:01.780Z,17.59
2022-09-22T12:05:35.221Z,17.97
2022-09-22T12:08:06.808Z,17.65
2022-09-22T12:10:37.909Z,17.95
2022-09-22T12:13:08.860Z,17.58
2022-09-22T12:15:39.104Z,17.59
2022-09-22T12:18:10.811Z,17.24
2022-09-22T12:20:46.698Z,18.18
2022-09-22T12:23:18.959Z,17.14
2022-09-22T12:25:50.937Z,17.96
2022-09-22T12:28:20.684Z,17.84
2022-09-22T12:31:00.152Z,17.78
2022-09-22T12:33:28.487Z,18.04
2022-09-22T12:35:56.839Z,17.90
2022-09-22T12:38:25.113Z,17.31
2022-09-22T12:40:57.600Z,17.14
2022-09-22T12:43:26.239Z,16.97
2022-09-22T12:45:55.021Z,17.11
2022-09-22T12:48:24.729Z,17.59
2022-09-22T12:50:53.208Z,18.22
2022-09-22T12:53:26.360Z,18.40
2022-09-22T12:55:56.523Z,18.02
2022-09-22T12:58:43.731Z,17.63
2022-09-22T13:01:34.994Z,17.87
2022-09-22T13:04:20.561Z,17.96
2022-09-22T13:06:56.843Z,17.73
2022-09-22T13:09:26.892Z,17.10
2022-09-22T13:15:17.804Z,17.32
2022-09-22T13:17:46.627Z,16.84
2022-09-22T13:20:16.367Z,17.10
2022-09-22T13:22:44.451Z,16.92
2022-09-22T13:25:17.584Z,16.47
2022-09-22T13:27:45.873Z,16.95
2022-09-22T13:30:16.003Z,16.80
2022-09-22T13:32:49.591Z,17.55
2022-09-22T13:35:25.455Z,18.14
2022-09-22T13:37:56.044Z,18.61
2022-09-22T13:40:27.923Z,18.60
2022-09-22T13:42:57.607Z,19.46
2022-09-22T13:45:27.571Z,18.65
2022-09-22T13:47:57.851Z,18.61
2022-09-22T13:50:25.884Z,17.95
2022-09-22T13:52:53.909Z,17.93
2022-09-22T13:55:26.203Z,18.32
2022-09-22T13:57:57.036Z,18.22
2022-09-22T14:00:31.358Z,18.16
2022-09-22T14:03:00.054Z,18.30
2022-09-22T14:05:30.030Z,18.27
2022-09-22T14:08:12.004Z,18.05
2022-09-22T14:10:42.226Z,18.04
2022-09-22T14:13:37.086Z,17.87
2022-09-22T14:16:14.983Z,18.11
2022-09-22T14:18:43.938Z,18.20
2022-09-22T14:21:12.047Z,18.29
2022-09-22T14:23:44.805Z,18.15
2022-09-22T14:26:29.513Z,17.86
2022-09-22T14:28:59.063Z,17.42
2022-09-22T14:31:30.027Z,17.13
2022-09-22T14:33:57.675Z,17.41
2022-09-22T14:36:26.681Z,17.80
2022-09-22T14:39:08.036Z,17.52
2022-09-22T14:41:38.497Z,17.40
2022-09-22T14:44:28.039Z,17.31
2022-09-22T14:46:57.350Z,17.49
2022-09-22T14:49:43.213Z,17.16
2022-09-22T14:52:19.868Z,16.91
2022-09-22T14:54:47.380Z,17.03
2022-09-22T14:57:17.362Z,16.79
2022-09-22T15:00:06.730Z,17.01
2022-09-22T15:02:41.410Z,17.23
2022-09-22T15:05:11.669Z,17.29
2022-09-22T15:07:40.263Z,16.91
2022-09-22T15:10:18.707Z,17.16
2022-09-22T15:12:49.591Z,16.99
2022-09-22T15:15:20.114Z,17.31
2022-09-22T15:18:07.486Z,17.56
2022-09-22T15:20:42.593Z,17.97
2022-09-22T15:23:15.731Z,18.23
2022-09-22T15:25:43.766Z,17.95
2022-09-22T15:28:15.583Z,17.63
2022-09-22T15:30:44.290Z,17.54
2022-09-22T15:33:15.528Z,17.33
2022-09-22T15:35:44.657Z,17.18
2022-09-22T15:38:17.814Z,17.27
2022-09-22T15:40:46.632Z,16.94
2022-09-22T15:43:20.563Z,16.80
2022-09-22T15:45:49.411Z,16.67
2022-09-22T15:48:23.611Z,16.49
2022-09-22T15:50:51.706Z,16.52
2022-09-22T15:53:19.236Z,16.56
2022-09-22T15:55:47.846Z,16.49
2022-09-22T15:58:16.758Z,16.33
2022-09-22T16:00:44.268Z,16.24
2022-09-22T16:03:16.353Z,16.11
2022-09-22T16:05:45.735Z,16.01
2022-09-22T16:08:16.082Z,15.94
2022-09-22T16:10:44.168Z,15.89
2022-09-22T16:13:12.773Z,15.79
2022-09-22T16:15:40.485Z,15.74
2022-09-22T16:18:08.321Z,15.74
2022-09-22T16:20:37.614Z,15.68
2022-09-22T16:23:07.494Z,15.64
2022-09-22T16:25:35.023Z,15.65
2022-09-22T16:28:02.975Z,15.71
2022-09-22T16:30:30.487Z,15.69
2022-09-22T16:32:57.963Z,15.68
2022-09-22T16:35:25.577Z,15.62
2022-09-22T16:37:57.102Z,15.58
2022-09-22T16:40:28.430Z,15.48
2022-09-22T16:42:55.999Z,15.40
2022-09-22T16:45:38.554Z,15.36
2022-09-22T16:48:07.275Z,15.26
2022-09-22T16:50:37.616Z,15.09
2022-09-22T16:53:07.430Z,14.91
2022-09-22T16:55:37.568Z,14.71
2022-09-22T16:58:07.307Z,14.68
2022-09-22T17:00:34.981Z,14.59
2022-09-22T17:03:02.489Z,14.41
2022-09-22T17:05:32.747Z,14.21
2022-09-22T17:08:05.935Z,13.95
2022-09-22T17:10:35.792Z,13.68
2022-09-22T17:13:05.154Z,13.45
2022-09-22T17:15:35.715Z,13.24
2022-09-22T17:18:04.397Z,13.10
2022-09-22T17:20:31.994Z,12.85
2022-09-22T17:22:59.653Z,12.67
2022-09-22T17:25:29.181Z,12.53
2022-09-22T17:27:57.586Z,12.41
2022-09-22T17:30:26.415Z,12.25
2022-09-22T17:32:54.136Z,11.98
2022-09-22T17:35:21.651Z,11.80
2022-09-22T17:37:51.726Z,11.59
2022-09-22T17:40:19.519Z,11.36
2022-09-22T17:42:47.584Z,11.21
2022-09-22T17:45:15.446Z,11.12
2022-09-22T17:48:01.967Z,11.00
2022-09-22T17:50:47.315Z,10.83
2022-09-22T17:53:32.446Z,11.01
2022-09-22T17:56:04.943Z,10.96
2022-09-22T17:58:32.773Z,10.78
2022-09-22T18:01:00.548Z,10.69
2022-09-22T18:03:29.372Z,10.63
2022-09-22T18:05:57.299Z,10.64
2022-09-22T18:08:25.129Z,10.59
2022-09-22T18:10:52.625Z,10.46
2022-09-22T18:13:20.126Z,10.32
2022-09-22T18:15:47.657Z,10.27
2022-09-22T18:18:15.180Z,10.22
2022-09-22T18:20:43.999Z,10.33
2022-09-22T18:23:12.327Z,10.37
2022-09-22T18:25:41.287Z,10.35
2022-09-22T18:28:08.770Z,10.25
2022-09-22T18:30:39.884Z,10.07
2022-09-22T18:33:07.399Z,10.12
2022-09-22T18:35:34.906Z,10.11
2022-09-22T18:38:03.878Z,9.98
2022-09-22T18:40:32.331Z,9.85
2022-09-22T18:42:59.831Z,9.71
2022-09-22T18:45:28.023Z,9.52
2022-09-22T18:47:59.431Z,9.54
2022-09-22T18:50:28.019Z,9.68
2022-09-22T18:52:56.689Z,9.76
2022-09-22T18:55:25.922Z,9.63
2022-09-22T18:57:53.982Z,9.52
2022-09-22T19:00:22.087Z,9.57
2022-09-22T19:02:50.260Z,9.42
2022-09-22T19:05:17.958Z,9.33
2022-09-22T19:07:47.581Z,9.39
2022-09-22T19:10:20.415Z,9.27
2022-09-22T19:12:49.485Z,9.11
2022-09-22T19:15:18.838Z,8.99
2022-09-22T19:17:49.155Z,9.02
2022-09-22T19:20:18.195Z,9.10
2022-09-22T19:22:46.831Z,9.23
2022-09-22T19:25:14.876Z,9.15
2022-09-22T19:27:42.392Z,8.96
2022-09-22T19:30:12.259Z,8.89
2022-09-22T19:32:40.687Z,8.87
2022-09-22T19:35:09.456Z,9.12
2022-09-22T19:37:37.199Z,9.06
2022-09-22T19:40:05.649Z,8.92
2022-09-22T19:42:37.998Z,8.92
2022-09-22T19:45:07.937Z,8.82
2022-09-22T19:47:36.794Z,8.75
2022-09-22T19:50:07.940Z,8.78
2022-09-22T19:52:35.925Z,8.86
2022-09-22T19:55:03.437Z,8.76
2022-09-22T19:57:31.812Z,8.82
2022-09-22T19:59:59.302Z,8.78
2022-09-22T20:02:26.819Z,8.75
2022-09-22T20:04:55.807Z,8.79
2022-09-22T20:07:27.619Z,8.64
2022-09-22T20:09:56.149Z,8.65
2022-09-22T20:12:24.062Z,8.68
2022-09-22T20:14:51.678Z,8.59
2022-09-22T20:17:19.203Z,8.46
2022-09-22T20:19:46.690Z,8.34
2022-09-22T20:22:25.076Z,8.24
2022-09-22T20:24:55.483Z,8.17
2022-09-22T20:27:23.984Z,8.35
2022-09-22T20:29:56.272Z,8.37
2022-09-22T20:32:25.424Z,8.24
2022-09-22T20:34:54.004Z,8.11
2022-09-22T20:37:23.267Z,8.01
2022-09-22T20:39:50.799Z,8.02
2022-09-22T20:42:18.363Z,8.09
2022-09-22T20:44:46.820Z,8.14
2022-09-22T20:47:15.574Z,8.05
2022-09-22T20:49:44.288Z,8.08
2022-09-22T20:52:15.214Z,8.18
2022-09-22T20:54:44.765Z,8.08
2022-09-22T20:57:12.270Z,8.16
2022-09-22T20:59:40.204Z,8.22
2022-09-22T21:02:08.076Z,8.26
2022-09-22T21:04:35.578Z,8.27
2022-09-22T21:07:03.071Z,8.23
2022-09-22T21:09:48.123Z,8.22
2022-09-22T21:12:16.963Z,8.14
2022-09-22T21:14:45.070Z,8.07
2022-09-22T21:17:13.600Z,7.95
2022-09-22T21:19:41.194Z,7.87
2022-09-22T21:22:08.757Z,7.86
2022-09-22T21:24:36.247Z,7.94
2022-09-22T21:27:03.756Z,7.82
2022-09-22T21:29:32.611Z,7.79
2022-09-22T21:32:00.464Z,7.73
2022-09-22T21:34:27.959Z,7.66
2022-09-22T21:36:55.444Z,7.74
2022-09-22T21:39:23.137Z,7.86
2022-09-22T21:41:50.761Z,7.89
2022-09-22T21:44:18.259Z,7.86
2022-09-22T21:46:47.607Z,7.72
2022-09-22T21:49:15.206Z,7.72
2022-09-22T21:51:44.266Z,7.76
2022-09-22T21:54:13.750Z,7.77
2022-09-22T21:56:41.272Z,7.82
2022-09-22T21:59:09.395Z,7.90
2022-09-22T22:01:39.185Z,8.04
2022-09-22T22:04:08.841Z,8.03
2022-09-22T22:06:40.621Z,8.00
2022-09-22T22:09:11.811Z,7.97
2022-09-22T22:11:40.531Z,7.90
2022-09-22T22:14:09.553Z,7.73
2022-09-22T22:16:38.829Z,7.59
2022-09-22T22:19:08.327Z,7.55
2022-09-22T22:21:36.124Z,7.54
2022-09-22T22:24:22.736Z,7.59
2022-09-22T22:26:52.374Z,7.55
2022-09-22T22:29:20.895Z,7.46
2022-09-22T22:31:49.643Z,7.48
2022-09-22T22:34:19.899Z,7.67
2022-09-22T22:36:48.558Z,7.74
2022-09-22T22:39:16.370Z,7.69
2022-09-22T22:41:44.415Z,7.60
2022-09-22T22:44:12.830Z,7.53
2022-09-22T22:46:40.411Z,7.43
2022-09-22T22:49:08.247Z,7.35
2022-09-22T22:51:37.423Z,7.42
2022-09-22T22:54:05.551Z,7.43
2022-09-22T22:56:33.595Z,7.51
2022-09-22T22:59:01.229Z,7.58
2022-09-22T23:01:30.818Z,7.64
2022-09-22T23:04:00.385Z,8.17
2022-09-22T23:06:29.633Z,8.01
2022-09-22T23:08:58.554Z,7.91
2022-09-22T23:11:27.877Z,7.79
2022-09-22T23:13:59.378Z,7.87
2022-09-22T23:16:28.264Z,7.96
2022-09-22T23:18:58.092Z,7.91
2022-09-22T23:21:26.255Z,7.91
2022-09-22T23:23:55.417Z,7.95
2022-09-22T23:26:24.882Z,7.89
2022-09-22T23:28:52.940Z,7.79
2022-09-22T23:31:22.362Z,8.11
2022-09-22T23:33:52.006Z,8.03
2022-09-22T23:36:22.392Z,7.92
2022-09-22T23:38:54.087Z,8.00
2022-09-22T23:41:21.843Z,8.02
2022-09-22T23:43:50.944Z,8.12
2022-09-22T23:46:18.863Z,8.17
2022-09-22T23:48:47.293Z,8.18
2022-09-22T23:51:15.100Z,8.14
2022-09-22T23:53:42.755Z,8.30
2022-09-22T23:56:10.460Z,8.21
2022-09-22T23:58:38.869Z,8.21
